sensor_id;sensor_type;location;lat;lon;timestamp;P1;durP1;ratioP1;P2;durP2;ratioP2
45356;SDS011;31092;51.924;21.448;2022-07-29T00:01:18;3.53;;;2.28;;
45356;SDS011;31092;51.924;21.448;2022-07-29T00:03:43;2.50;;;1.70;;
45356;SDS011;31092;51.924;21.448;2022-07-29T00:06:09;2.30;;;1.90;;
45356;SDS011;31092;51.924;21.448;2022-07-29T00:08:34;2.15;;;1.73;;
45356;SDS011;31092;51.924;21.448;2022-07-29T00:11:00;2.47;;;1.67;;
45356;SDS011;31092;51.924;21.448;2022-07-29T00:13:27;3.03;;;1.75;;
45356;SDS011;31092;51.924;21.448;2022-07-29T00:15:52;2.67;;;1.80;;
45356;SDS011;31092;51.924;21.448;2022-07-29T00:18:18;2.63;;;1.80;;
45356;SDS011;31092;51.924;21.448;2022-07-29T00:20:43;3.35;;;1.52;;
45356;SDS011;31092;51.924;21.448;2022-07-29T00:23:09;2.22;;;2.03;;
45356;SDS011;31092;51.924;21.448;2022-07-29T00:25:34;3.53;;;1.77;;
45356;SDS011;31092;51.924;21.448;2022-07-29T00:28:00;4.20;;;1.63;;
45356;SDS011;31092;51.924;21.448;2022-07-29T00:30:25;2.38;;;1.52;;
45356;SDS011;31092;51.924;21.448;2022-07-29T00:32:51;4.97;;;2.17;;
45356;SDS011;31092;51.924;21.448;2022-07-29T00:35:16;1.98;;;1.63;;
45356;SDS011;31092;51.924;21.448;2022-07-29T00:38:00;3.70;;;1.95;;
45356;SDS011;31092;51.924;21.448;2022-07-29T00:40:26;2.70;;;1.40;;
45356;SDS011;31092;51.924;21.448;2022-07-29T00:42:51;3.80;;;1.67;;
45356;SDS011;31092;51.924;21.448;2022-07-29T00:45:17;3.17;;;1.48;;
45356;SDS011;31092;51.924;21.448;2022-07-29T00:47:43;2.22;;;1.60;;
45356;SDS011;31092;51.924;21.448;2022-07-29T00:50:09;3.95;;;1.92;;
45356;SDS011;31092;51.924;21.448;2022-07-29T00:52:38;2.72;;;1.95;;
45356;SDS011;31092;51.924;21.448;2022-07-29T00:55:06;6.32;;;2.10;;
45356;SDS011;31092;51.924;21.448;2022-07-29T00:57:34;3.42;;;1.88;;
45356;SDS011;31092;51.924;21.448;2022-07-29T01:00:02;2.83;;;1.60;;
45356;SDS011;31092;51.924;21.448;2022-07-29T01:02:29;2.25;;;1.50;;
45356;SDS011;31092;51.924;21.448;2022-07-29T01:04:54;2.70;;;1.80;;
45356;SDS011;31092;51.924;21.448;2022-07-29T01:07:22;1.98;;;1.40;;
45356;SDS011;31092;51.924;21.448;2022-07-29T01:09:50;2.55;;;1.75;;
45356;SDS011;31092;51.924;21.448;2022-07-29T01:12:19;1.48;;;1.20;;
45356;SDS011;31092;51.924;21.448;2022-07-29T01:14:51;1.17;;;1.00;;
45356;SDS011;31092;51.924;21.448;2022-07-29T01:17:24;1.83;;;1.25;;
45356;SDS011;31092;51.924;21.448;2022-07-29T01:31:54;4.15;;;1.58;;
45356;SDS011;31092;51.924;21.448;2022-07-29T01:34:25;2.15;;;1.35;;
45356;SDS011;31092;51.924;21.448;2022-07-29T01:37:07;2.30;;;1.05;;
45356;SDS011;31092;51.924;21.448;2022-07-29T01:39:43;1.33;;;1.20;;
45356;SDS011;31092;51.924;21.448;2022-07-29T01:44:48;1.45;;;1.30;;
45356;SDS011;31092;51.924;21.448;2022-07-29T01:47:25;3.05;;;1.52;;
45356;SDS011;31092;51.924;21.448;2022-07-29T01:50:00;2.38;;;1.38;;
45356;SDS011;31092;51.924;21.448;2022-07-29T01:55:22;1.55;;;1.17;;
45356;SDS011;31092;51.924;21.448;2022-07-29T01:57:53;3.53;;;1.70;;
45356;SDS011;31092;51.924;21.448;2022-07-29T02:00:21;3.33;;;1.63;;
45356;SDS011;31092;51.924;21.448;2022-07-29T02:02:47;1.65;;;1.50;;
45356;SDS011;31092;51.924;21.448;2022-07-29T02:05:15;2.90;;;1.90;;
45356;SDS011;31092;51.924;21.448;2022-07-29T02:07:44;1.38;;;1.27;;
45356;SDS011;31092;51.924;21.448;2022-07-29T02:10:12;3.70;;;1.65;;
45356;SDS011;31092;51.924;21.448;2022-07-29T02:12:39;3.03;;;1.52;;
45356;SDS011;31092;51.924;21.448;2022-07-29T02:15:07;1.27;;;0.95;;
45356;SDS011;31092;51.924;21.448;2022-07-29T02:17:41;1.23;;;1.13;;
45356;SDS011;31092;51.924;21.448;2022-07-29T02:20:30;2.38;;;1.10;;
45356;SDS011;31092;51.924;21.448;2022-07-29T02:22:58;1.60;;;1.00;;
45356;SDS011;31092;51.924;21.448;2022-07-29T02:25:24;2.25;;;1.40;;
45356;SDS011;31092;51.924;21.448;2022-07-29T02:27:51;4.28;;;0.98;;
45356;SDS011;31092;51.924;21.448;2022-07-29T02:30:18;3.33;;;1.50;;
45356;SDS011;31092;51.924;21.448;2022-07-29T02:32:47;1.67;;;1.27;;
45356;SDS011;31092;51.924;21.448;2022-07-29T02:35:14;2.80;;;1.67;;
45356;SDS011;31092;51.924;21.448;2022-07-29T02:37:42;2.35;;;1.23;;
45356;SDS011;31092;51.924;21.448;2022-07-29T02:40:12;1.27;;;1.10;;
45356;SDS011;31092;51.924;21.448;2022-07-29T02:45:07;3.63;;;1.27;;
45356;SDS011;31092;51.924;21.448;2022-07-29T02:47:37;2.30;;;1.50;;
45356;SDS011;31092;51.924;21.448;2022-07-29T02:50:17;1.45;;;1.27;;
45356;SDS011;31092;51.924;21.448;2022-07-29T02:52:52;1.23;;;1.15;;
45356;SDS011;31092;51.924;21.448;2022-07-29T02:55:32;1.23;;;0.98;;
45356;SDS011;31092;51.924;21.448;2022-07-29T02:58:06;1.60;;;1.50;;
45356;SDS011;31092;51.924;21.448;2022-07-29T03:00:39;2.55;;;1.30;;
45356;SDS011;31092;51.924;21.448;2022-07-29T03:03:09;1.70;;;1.02;;
45356;SDS011;31092;51.924;21.448;2022-07-29T03:05:40;3.55;;;1.55;;
45356;SDS011;31092;51.924;21.448;2022-07-29T03:08:06;1.25;;;1.13;;
45356;SDS011;31092;51.924;21.448;2022-07-29T03:10:36;1.25;;;1.13;;
45356;SDS011;31092;51.924;21.448;2022-07-29T03:13:04;1.55;;;1.30;;
45356;SDS011;31092;51.924;21.448;2022-07-29T03:15:31;1.33;;;1.23;;
45356;SDS011;31092;51.924;21.448;2022-07-29T03:17:57;1.58;;;1.25;;
45356;SDS011;31092;51.924;21.448;2022-07-29T03:20:23;1.98;;;1.20;;
45356;SDS011;31092;51.924;21.448;2022-07-29T03:22:50;1.63;;;1.50;;
45356;SDS011;31092;51.924;21.448;2022-07-29T03:25:17;5.15;;;1.17;;
45356;SDS011;31092;51.924;21.448;2022-07-29T03:27:43;4.70;;;1.70;;
45356;SDS011;31092;51.924;21.448;2022-07-29T03:30:10;2.22;;;1.60;;
45356;SDS011;31092;51.924;21.448;2022-07-29T03:32:37;1.08;;;0.98;;
45356;SDS011;31092;51.924;21.448;2022-07-29T03:35:03;1.73;;;1.50;;
45356;SDS011;31092;51.924;21.448;2022-07-29T03:37:29;1.20;;;1.13;;
45356;SDS011;31092;51.924;21.448;2022-07-29T03:39:56;1.25;;;1.15;;
45356;SDS011;31092;51.924;21.448;2022-07-29T03:42:24;1.58;;;1.00;;
45356;SDS011;31092;51.924;21.448;2022-07-29T03:44:59;1.35;;;1.13;;
45356;SDS011;31092;51.924;21.448;2022-07-29T03:47:28;0.98;;;0.90;;
45356;SDS011;31092;51.924;21.448;2022-07-29T03:50:17;3.08;;;0.93;;
45356;SDS011;31092;51.924;21.448;2022-07-29T03:52:44;1.73;;;1.33;;
45356;SDS011;31092;51.924;21.448;2022-07-29T03:55:10;2.15;;;1.08;;
45356;SDS011;31092;51.924;21.448;2022-07-29T03:57:37;1.70;;;1.35;;
45356;SDS011;31092;51.924;21.448;2022-07-29T04:00:04;1.42;;;1.08;;
45356;SDS011;31092;51.924;21.448;2022-07-29T04:02:32;1.65;;;1.55;;
45356;SDS011;31092;51.924;21.448;2022-07-29T04:05:00;1.70;;;1.60;;
45356;SDS011;31092;51.924;21.448;2022-07-29T04:07:26;2.55;;;1.90;;
45356;SDS011;31092;51.924;21.448;2022-07-29T04:09:52;1.63;;;1.48;;
45356;SDS011;31092;51.924;21.448;2022-07-29T04:12:17;2.47;;;2.25;;
45356;SDS011;31092;51.924;21.448;2022-07-29T04:14:43;2.65;;;2.05;;
45356;SDS011;31092;51.924;21.448;2022-07-29T04:17:08;4.22;;;1.88;;
45356;SDS011;31092;51.924;21.448;2022-07-29T04:19:34;4.25;;;2.05;;
45356;SDS011;31092;51.924;21.448;2022-07-29T04:22:00;2.83;;;2.05;;
45356;SDS011;31092;51.924;21.448;2022-07-29T04:24:26;3.55;;;2.20;;
45356;SDS011;31092;51.924;21.448;2022-07-29T04:26:52;4.30;;;1.67;;
45356;SDS011;31092;51.924;21.448;2022-07-29T04:29:18;2.67;;;1.80;;
45356;SDS011;31092;51.924;21.448;2022-07-29T04:31:44;3.60;;;1.80;;
45356;SDS011;31092;51.924;21.448;2022-07-29T04:34:10;2.05;;;1.20;;
45356;SDS011;31092;51.924;21.448;2022-07-29T04:36:37;0.70;;;0.70;;
45356;SDS011;31092;51.924;21.448;2022-07-29T04:39:03;1.40;;;1.30;;
45356;SDS011;31092;51.924;21.448;2022-07-29T04:41:29;7.03;;;1.52;;
45356;SDS011;31092;51.924;21.448;2022-07-29T04:43:54;1.90;;;1.23;;
45356;SDS011;31092;51.924;21.448;2022-07-29T04:46:20;2.45;;;1.30;;
45356;SDS011;31092;51.924;21.448;2022-07-29T04:48:47;1.90;;;1.08;;
45356;SDS011;31092;51.924;21.448;2022-07-29T04:51:13;0.98;;;0.98;;
45356;SDS011;31092;51.924;21.448;2022-07-29T04:53:39;5.13;;;1.02;;
45356;SDS011;31092;51.924;21.448;2022-07-29T04:56:05;2.53;;;1.02;;
45356;SDS011;31092;51.924;21.448;2022-07-29T04:58:31;0.90;;;0.85;;
45356;SDS011;31092;51.924;21.448;2022-07-29T05:00:59;1.77;;;1.05;;
45356;SDS011;31092;51.924;21.448;2022-07-29T05:03:25;2.05;;;0.90;;
45356;SDS011;31092;51.924;21.448;2022-07-29T05:05:50;2.47;;;0.98;;
45356;SDS011;31092;51.924;21.448;2022-07-29T05:08:16;1.23;;;1.05;;
45356;SDS011;31092;51.924;21.448;2022-07-29T05:10:42;3.10;;;1.10;;
45356;SDS011;31092;51.924;21.448;2022-07-29T05:13:08;1.30;;;0.90;;
45356;SDS011;31092;51.924;21.448;2022-07-29T05:15:37;0.90;;;0.80;;
45356;SDS011;31092;51.924;21.448;2022-07-29T05:18:03;1.15;;;1.05;;
45356;SDS011;31092;51.924;21.448;2022-07-29T05:20:29;4.90;;;0.90;;
45356;SDS011;31092;51.924;21.448;2022-07-29T05:22:56;1.10;;;0.90;;
45356;SDS011;31092;51.924;21.448;2022-07-29T05:25:26;4.97;;;1.30;;
45356;SDS011;31092;51.924;21.448;2022-07-29T05:28:04;1.17;;;0.93;;
45356;SDS011;31092;51.924;21.448;2022-07-29T05:30:30;1.80;;;1.00;;
45356;SDS011;31092;51.924;21.448;2022-07-29T05:32:56;1.33;;;1.10;;
45356;SDS011;31092;51.924;21.448;2022-07-29T05:35:21;0.98;;;0.88;;
45356;SDS011;31092;51.924;21.448;2022-07-29T05:37:47;1.55;;;1.00;;
45356;SDS011;31092;51.924;21.448;2022-07-29T05:40:13;2.00;;;1.17;;
45356;SDS011;31092;51.924;21.448;2022-07-29T05:42:38;0.82;;;0.82;;
45356;SDS011;31092;51.924;21.448;2022-07-29T05:45:04;0.77;;;0.77;;
45356;SDS011;31092;51.924;21.448;2022-07-29T05:47:30;1.80;;;0.77;;
45356;SDS011;31092;51.924;21.448;2022-07-29T05:49:56;0.80;;;0.80;;
45356;SDS011;31092;51.924;21.448;2022-07-29T05:52:31;0.75;;;0.70;;
45356;SDS011;31092;51.924;21.448;2022-07-29T05:55:05;0.70;;;0.70;;
45356;SDS011;31092;51.924;21.448;2022-07-29T05:57:31;0.70;;;0.60;;
45356;SDS011;31092;51.924;21.448;2022-07-29T05:59:59;1.60;;;0.68;;
45356;SDS011;31092;51.924;21.448;2022-07-29T06:02:25;0.95;;;0.95;;
45356;SDS011;31092;51.924;21.448;2022-07-29T06:04:51;0.70;;;0.70;;
45356;SDS011;31092;51.924;21.448;2022-07-29T06:07:17;0.63;;;0.63;;
45356;SDS011;31092;51.924;21.448;2022-07-29T06:09:42;0.95;;;0.80;;
45356;SDS011;31092;51.924;21.448;2022-07-29T06:12:08;0.57;;;0.57;;
45356;SDS011;31092;51.924;21.448;2022-07-29T06:14:40;0.70;;;0.70;;
45356;SDS011;31092;51.924;21.448;2022-07-29T06:17:06;0.73;;;0.50;;
45356;SDS011;31092;51.924;21.448;2022-07-29T06:19:33;0.80;;;0.70;;
45356;SDS011;31092;51.924;21.448;2022-07-29T06:22:00;0.60;;;0.60;;
45356;SDS011;31092;51.924;21.448;2022-07-29T06:24:25;1.60;;;0.80;;
45356;SDS011;31092;51.924;21.448;2022-07-29T06:26:51;0.60;;;0.50;;
45356;SDS011;31092;51.924;21.448;2022-07-29T06:29:18;2.47;;;0.55;;
45356;SDS011;31092;51.924;21.448;2022-07-29T06:31:43;0.57;;;0.43;;
45356;SDS011;31092;51.924;21.448;2022-07-29T06:34:09;1.17;;;0.68;;
45356;SDS011;31092;51.924;21.448;2022-07-29T06:36:35;0.85;;;0.75;;
45356;SDS011;31092;51.924;21.448;2022-07-29T06:39:03;1.20;;;0.52;;
45356;SDS011;31092;51.924;21.448;2022-07-29T06:41:33;0.45;;;0.45;;
45356;SDS011;31092;51.924;21.448;2022-07-29T06:43:58;2.05;;;0.60;;
45356;SDS011;31092;51.924;21.448;2022-07-29T06:46:24;0.82;;;0.45;;
45356;SDS011;31092;51.924;21.448;2022-07-29T06:48:50;1.08;;;0.43;;
45356;SDS011;31092;51.924;21.448;2022-07-29T06:51:18;0.57;;;0.57;;
45356;SDS011;31092;51.924;21.448;2022-07-29T06:53:43;0.50;;;0.50;;
45356;SDS011;31092;51.924;21.448;2022-07-29T06:56:09;2.58;;;0.63;;
45356;SDS011;31092;51.924;21.448;2022-07-29T06:58:35;0.50;;;0.50;;
45356;SDS011;31092;51.924;21.448;2022-07-29T07:01:02;1.20;;;0.68;;
45356;SDS011;31092;51.924;21.448;2022-07-29T07:03:28;0.65;;;0.60;;
45356;SDS011;31092;51.924;21.448;2022-07-29T07:05:55;1.60;;;0.52;;
45356;SDS011;31092;51.924;21.448;2022-07-29T07:08:20;0.80;;;0.70;;
45356;SDS011;31092;51.924;21.448;2022-07-29T07:10:47;0.70;;;0.60;;
45356;SDS011;31092;51.924;21.448;2022-07-29T07:13:13;0.43;;;0.40;;
45356;SDS011;31092;51.924;21.448;2022-07-29T07:15:39;0.73;;;0.47;;
45356;SDS011;31092;51.924;21.448;2022-07-29T07:18:09;0.80;;;0.60;;
45356;SDS011;31092;51.924;21.448;2022-07-29T07:20:35;0.50;;;0.50;;
45356;SDS011;31092;51.924;21.448;2022-07-29T07:23:01;0.32;;;0.32;;
45356;SDS011;31092;51.924;21.448;2022-07-29T07:25:27;4.10;;;0.65;;
45356;SDS011;31092;51.924;21.448;2022-07-29T07:27:53;0.63;;;0.60;;
45356;SDS011;31092;51.924;21.448;2022-07-29T07:30:18;0.40;;;0.40;;
45356;SDS011;31092;51.924;21.448;2022-07-29T07:32:47;1.95;;;0.70;;
45356;SDS011;31092;51.924;21.448;2022-07-29T07:35:12;1.80;;;0.50;;
45356;SDS011;31092;51.924;21.448;2022-07-29T07:37:39;0.40;;;0.40;;
45356;SDS011;31092;51.924;21.448;2022-07-29T07:40:08;0.70;;;0.60;;
45356;SDS011;31092;51.924;21.448;2022-07-29T07:42:38;0.60;;;0.50;;
45356;SDS011;31092;51.924;21.448;2022-07-29T07:45:05;0.50;;;0.50;;
45356;SDS011;31092;51.924;21.448;2022-07-29T07:47:31;0.47;;;0.47;;
45356;SDS011;31092;51.924;21.448;2022-07-29T07:49:57;0.30;;;0.30;;
45356;SDS011;31092;51.924;21.448;2022-07-29T07:52:23;0.50;;;0.40;;
45356;SDS011;31092;51.924;21.448;2022-07-29T07:54:49;0.57;;;0.57;;
45356;SDS011;31092;51.924;21.448;2022-07-29T07:57:15;0.50;;;0.50;;
45356;SDS011;31092;51.924;21.448;2022-07-29T07:59:41;0.38;;;0.32;;
45356;SDS011;31092;51.924;21.448;2022-07-29T08:02:07;0.40;;;0.40;;
45356;SDS011;31092;51.924;21.448;2022-07-29T08:04:33;0.50;;;0.50;;
45356;SDS011;31092;51.924;21.448;2022-07-29T08:06:59;0.50;;;0.40;;
45356;SDS011;31092;51.924;21.448;2022-07-29T08:09:26;0.57;;;0.45;;
45356;SDS011;31092;51.924;21.448;2022-07-29T08:11:52;0.95;;;0.50;;
45356;SDS011;31092;51.924;21.448;2022-07-29T08:14:18;0.50;;;0.50;;
45356;SDS011;31092;51.924;21.448;2022-07-29T08:16:44;0.50;;;0.50;;
45356;SDS011;31092;51.924;21.448;2022-07-29T08:19:10;0.50;;;0.50;;
45356;SDS011;31092;51.924;21.448;2022-07-29T08:21:36;0.70;;;0.68;;
45356;SDS011;31092;51.924;21.448;2022-07-29T08:24:02;0.30;;;0.30;;
45356;SDS011;31092;51.924;21.448;2022-07-29T08:26:46;0.50;;;0.50;;
45356;SDS011;31092;51.924;21.448;2022-07-29T08:29:12;0.80;;;0.55;;
45356;SDS011;31092;51.924;21.448;2022-07-29T08:31:38;0.52;;;0.40;;
45356;SDS011;31092;51.924;21.448;2022-07-29T08:34:04;0.60;;;0.50;;
45356;SDS011;31092;51.924;21.448;2022-07-29T08:36:30;0.30;;;0.30;;
45356;SDS011;31092;51.924;21.448;2022-07-29T08:38:57;0.40;;;0.40;;
45356;SDS011;31092;51.924;21.448;2022-07-29T08:41:22;0.40;;;0.40;;
45356;SDS011;31092;51.924;21.448;2022-07-29T08:43:48;1.30;;;0.30;;
45356;SDS011;31092;51.924;21.448;2022-07-29T08:46:15;0.50;;;0.50;;
45356;SDS011;31092;51.924;21.448;2022-07-29T08:48:42;0.68;;;0.40;;
45356;SDS011;31092;51.924;21.448;2022-07-29T08:51:07;0.73;;;0.50;;
45356;SDS011;31092;51.924;21.448;2022-07-29T08:53:33;1.33;;;0.63;;
45356;SDS011;31092;51.924;21.448;2022-07-29T08:55:59;0.30;;;0.30;;
45356;SDS011;31092;51.924;21.448;2022-07-29T08:58:27;0.52;;;0.40;;
45356;SDS011;31092;51.924;21.448;2022-07-29T09:00:57;0.45;;;0.45;;
45356;SDS011;31092;51.924;21.448;2022-07-29T09:03:29;0.73;;;0.73;;
45356;SDS011;31092;51.924;21.448;2022-07-29T09:05:57;0.50;;;0.50;;
45356;SDS011;31092;51.924;21.448;2022-07-29T09:08:24;0.43;;;0.40;;
45356;SDS011;31092;51.924;21.448;2022-07-29T09:10:50;0.40;;;0.40;;
45356;SDS011;31092;51.924;21.448;2022-07-29T09:13:16;0.50;;;0.38;;
45356;SDS011;31092;51.924;21.448;2022-07-29T09:15:42;1.77;;;0.40;;
45356;SDS011;31092;51.924;21.448;2022-07-29T09:18:08;0.50;;;0.50;;
45356;SDS011;31092;51.924;21.448;2022-07-29T09:20:34;0.30;;;0.30;;
45356;SDS011;31092;51.924;21.448;2022-07-29T09:23:18;0.57;;;0.50;;
45356;SDS011;31092;51.924;21.448;2022-07-29T09:25:43;0.30;;;0.30;;
45356;SDS011;31092;51.924;21.448;2022-07-29T09:28:09;0.40;;;0.40;;
45356;SDS011;31092;51.924;21.448;2022-07-29T09:30:56;0.38;;;0.38;;
45356;SDS011;31092;51.924;21.448;2022-07-29T09:33:23;0.63;;;0.52;;
45356;SDS011;31092;51.924;21.448;2022-07-29T09:35:59;0.50;;;0.50;;
45356;SDS011;31092;51.924;21.448;2022-07-29T09:38:29;0.52;;;0.38;;
45356;SDS011;31092;51.924;21.448;2022-07-29T09:40:55;0.40;;;0.40;;
45356;SDS011;31092;51.924;21.448;2022-07-29T09:43:22;0.45;;;0.45;;
45356;SDS011;31092;51.924;21.448;2022-07-29T09:45:48;0.60;;;0.40;;
45356;SDS011;31092;51.924;21.448;2022-07-29T09:48:21;0.50;;;0.50;;
45356;SDS011;31092;51.924;21.448;2022-07-29T09:50:48;0.40;;;0.40;;
45356;SDS011;31092;51.924;21.448;2022-07-29T09:53:37;0.30;;;0.30;;
45356;SDS011;31092;51.924;21.448;2022-07-29T09:56:02;0.28;;;0.28;;
45356;SDS011;31092;51.924;21.448;2022-07-29T09:58:28;0.47;;;0.43;;
45356;SDS011;31092;51.924;21.448;2022-07-29T10:00:54;0.82;;;0.40;;
45356;SDS011;31092;51.924;21.448;2022-07-29T10:03:21;0.52;;;0.38;;
45356;SDS011;31092;51.924;21.448;2022-07-29T10:06:03;0.40;;;0.40;;
45356;SDS011;31092;51.924;21.448;2022-07-29T10:08:33;0.30;;;0.30;;
45356;SDS011;31092;51.924;21.448;2022-07-29T10:11:09;0.40;;;0.40;;
45356;SDS011;31092;51.924;21.448;2022-07-29T10:13:37;0.60;;;0.60;;
45356;SDS011;31092;51.924;21.448;2022-07-29T10:16:03;0.50;;;0.50;;
45356;SDS011;31092;51.924;21.448;2022-07-29T10:18:29;0.55;;;0.40;;
45356;SDS011;31092;51.924;21.448;2022-07-29T10:20:55;0.43;;;0.43;;
45356;SDS011;31092;51.924;21.448;2022-07-29T10:23:21;0.50;;;0.50;;
45356;SDS011;31092;51.924;21.448;2022-07-29T10:25:48;0.30;;;0.30;;
45356;SDS011;31092;51.924;21.448;2022-07-29T10:28:14;2.17;;;0.50;;
45356;SDS011;31092;51.924;21.448;2022-07-29T10:30:40;0.40;;;0.40;;
45356;SDS011;31092;51.924;21.448;2022-07-29T10:36:07;0.40;;;0.40;;
45356;SDS011;31092;51.924;21.448;2022-07-29T10:44:25;1.30;;;0.57;;
45356;SDS011;31092;51.924;21.448;2022-07-29T10:46:52;0.40;;;0.40;;
45356;SDS011;31092;51.924;21.448;2022-07-29T10:54:15;0.30;;;0.30;;
45356;SDS011;31092;51.924;21.448;2022-07-29T10:56:41;0.20;;;0.20;;
45356;SDS011;31092;51.924;21.448;2022-07-29T11:01:44;0.20;;;0.20;;
45356;SDS011;31092;51.924;21.448;2022-07-29T11:04:11;0.40;;;0.38;;
45356;SDS011;31092;51.924;21.448;2022-07-29T11:09:30;0.30;;;0.30;;
45356;SDS011;31092;51.924;21.448;2022-07-29T11:11:56;0.30;;;0.30;;
45356;SDS011;31092;51.924;21.448;2022-07-29T11:17:16;0.30;;;0.30;;
45356;SDS011;31092;51.924;21.448;2022-07-29T11:19:43;0.75;;;0.40;;
45356;SDS011;31092;51.924;21.448;2022-07-29T11:22:11;0.90;;;0.35;;
45356;SDS011;31092;51.924;21.448;2022-07-29T11:25:14;1.08;;;0.40;;
45356;SDS011;31092;51.924;21.448;2022-07-29T11:27:41;5.45;;;0.50;;
45356;SDS011;31092;51.924;21.448;2022-07-29T11:30:07;1.20;;;0.32;;
45356;SDS011;31092;51.924;21.448;2022-07-29T11:32:37;3.83;;;0.50;;
45356;SDS011;31092;51.924;21.448;2022-07-29T11:37:43;0.38;;;0.38;;
45356;SDS011;31092;51.924;21.448;2022-07-29T11:40:12;0.70;;;0.40;;
45356;SDS011;31092;51.924;21.448;2022-07-29T11:42:40;0.28;;;0.28;;
45356;SDS011;31092;51.924;21.448;2022-07-29T11:45:10;0.88;;;0.40;;
45356;SDS011;31092;51.924;21.448;2022-07-29T11:47:46;1.23;;;0.40;;
45356;SDS011;31092;51.924;21.448;2022-07-29T11:50:18;0.80;;;0.40;;
45356;SDS011;31092;51.924;21.448;2022-07-29T11:52:53;0.75;;;0.40;;
45356;SDS011;31092;51.924;21.448;2022-07-29T11:55:20;1.15;;;0.57;;
45356;SDS011;31092;51.924;21.448;2022-07-29T12:00:24;0.35;;;0.35;;
45356;SDS011;31092;51.924;21.448;2022-07-29T12:02:51;0.30;;;0.30;;
45356;SDS011;31092;51.924;21.448;2022-07-29T12:05:17;0.32;;;0.32;;
45356;SDS011;31092;51.924;21.448;2022-07-29T12:07:43;0.63;;;0.45;;
45356;SDS011;31092;51.924;21.448;2022-07-29T12:10:09;0.40;;;0.40;;
45356;SDS011;31092;51.924;21.448;2022-07-29T12:12:35;0.30;;;0.30;;
45356;SDS011;31092;51.924;21.448;2022-07-29T12:15:11;0.30;;;0.30;;
45356;SDS011;31092;51.924;21.448;2022-07-29T12:17:37;0.30;;;0.30;;
45356;SDS011;31092;51.924;21.448;2022-07-29T12:20:04;0.40;;;0.40;;
45356;SDS011;31092;51.924;21.448;2022-07-29T12:22:38;0.32;;;0.32;;
45356;SDS011;31092;51.924;21.448;2022-07-29T12:25:08;0.30;;;0.30;;
45356;SDS011;31092;51.924;21.448;2022-07-29T12:27:35;0.63;;;0.63;;
45356;SDS011;31092;51.924;21.448;2022-07-29T12:30:05;0.50;;;0.30;;
45356;SDS011;31092;51.924;21.448;2022-07-29T12:32:37;0.35;;;0.35;;
45356;SDS011;31092;51.924;21.448;2022-07-29T12:35:09;0.40;;;0.30;;
45356;SDS011;31092;51.924;21.448;2022-07-29T12:37:38;0.30;;;0.30;;
45356;SDS011;31092;51.924;21.448;2022-07-29T12:40:06;0.30;;;0.30;;
45356;SDS011;31092;51.924;21.448;2022-07-29T12:42:33;0.20;;;0.20;;
45356;SDS011;31092;51.924;21.448;2022-07-29T12:44:59;0.22;;;0.22;;
45356;SDS011;31092;51.924;21.448;2022-07-29T12:47:26;1.20;;;0.50;;
45356;SDS011;31092;51.924;21.448;2022-07-29T12:50:07;0.40;;;0.40;;
45356;SDS011;31092;51.924;21.448;2022-07-29T12:52:39;0.30;;;0.30;;
45356;SDS011;31092;51.924;21.448;2022-07-29T12:55:04;0.75;;;0.50;;
45356;SDS011;31092;51.924;21.448;2022-07-29T12:57:30;0.32;;;0.32;;
45356;SDS011;31092;51.924;21.448;2022-07-29T13:02:34;1.75;;;0.65;;
45356;SDS011;31092;51.924;21.448;2022-07-29T13:05:00;0.45;;;0.30;;
45356;SDS011;31092;51.924;21.448;2022-07-29T13:07:29;0.40;;;0.40;;
45356;SDS011;31092;51.924;21.448;2022-07-29T13:10:18;0.30;;;0.30;;
45356;SDS011;31092;51.924;21.448;2022-07-29T13:13:04;0.30;;;0.30;;
45356;SDS011;31092;51.924;21.448;2022-07-29T13:15:41;0.35;;;0.35;;
45356;SDS011;31092;51.924;21.448;2022-07-29T13:21:09;0.52;;;0.28;;
45356;SDS011;31092;51.924;21.448;2022-07-29T13:23:36;0.35;;;0.35;;
45356;SDS011;31092;51.924;21.448;2022-07-29T13:26:08;0.38;;;0.35;;
45356;SDS011;31092;51.924;21.448;2022-07-29T13:28:36;0.55;;;0.55;;
45356;SDS011;31092;51.924;21.448;2022-07-29T13:31:02;0.50;;;0.50;;
45356;SDS011;31092;51.924;21.448;2022-07-29T13:33:28;0.30;;;0.30;;
45356;SDS011;31092;51.924;21.448;2022-07-29T13:35:55;0.20;;;0.20;;
45356;SDS011;31092;51.924;21.448;2022-07-29T13:38:20;0.43;;;0.43;;
45356;SDS011;31092;51.924;21.448;2022-07-29T13:40:46;0.30;;;0.30;;
45356;SDS011;31092;51.924;21.448;2022-07-29T13:43:11;0.40;;;0.40;;
45356;SDS011;31092;51.924;21.448;2022-07-29T13:45:37;0.77;;;0.40;;
45356;SDS011;31092;51.924;21.448;2022-07-29T13:48:03;0.30;;;0.30;;
45356;SDS011;31092;51.924;21.448;2022-07-29T13:50:29;0.30;;;0.30;;
45356;SDS011;31092;51.924;21.448;2022-07-29T13:52:54;0.40;;;0.40;;
45356;SDS011;31092;51.924;21.448;2022-07-29T13:55:20;0.40;;;0.40;;
45356;SDS011;31092;51.924;21.448;2022-07-29T13:57:45;0.30;;;0.30;;
45356;SDS011;31092;51.924;21.448;2022-07-29T14:00:12;0.30;;;0.30;;
45356;SDS011;31092;51.924;21.448;2022-07-29T14:02:38;0.55;;;0.20;;
45356;SDS011;31092;51.924;21.448;2022-07-29T14:05:05;0.57;;;0.40;;
45356;SDS011;31092;51.924;21.448;2022-07-29T14:07:31;0.40;;;0.40;;
45356;SDS011;31092;51.924;21.448;2022-07-29T14:09:56;0.57;;;0.40;;
45356;SDS011;31092;51.924;21.448;2022-07-29T14:12:22;0.30;;;0.30;;
45356;SDS011;31092;51.924;21.448;2022-07-29T14:14:48;0.85;;;0.43;;
45356;SDS011;31092;51.924;21.448;2022-07-29T14:17:14;0.28;;;0.28;;
45356;SDS011;31092;51.924;21.448;2022-07-29T14:19:39;0.30;;;0.30;;
45356;SDS011;31092;51.924;21.448;2022-07-29T14:22:05;1.27;;;0.40;;
45356;SDS011;31092;51.924;21.448;2022-07-29T14:24:32;0.77;;;0.52;;
45356;SDS011;31092;51.924;21.448;2022-07-29T14:26:58;0.40;;;0.40;;
45356;SDS011;31092;51.924;21.448;2022-07-29T14:29:24;0.40;;;0.40;;
45356;SDS011;31092;51.924;21.448;2022-07-29T14:31:49;0.20;;;0.20;;
45356;SDS011;31092;51.924;21.448;2022-07-29T14:34:15;0.52;;;0.50;;
45356;SDS011;31092;51.924;21.448;2022-07-29T14:36:41;1.38;;;0.50;;
45356;SDS011;31092;51.924;21.448;2022-07-29T14:39:07;0.30;;;0.30;;
45356;SDS011;31092;51.924;21.448;2022-07-29T14:41:32;0.47;;;0.40;;
45356;SDS011;31092;51.924;21.448;2022-07-29T14:43:58;0.40;;;0.32;;
45356;SDS011;31092;51.924;21.448;2022-07-29T14:46:26;0.52;;;0.40;;
45356;SDS011;31092;51.924;21.448;2022-07-29T14:48:52;0.30;;;0.30;;
45356;SDS011;31092;51.924;21.448;2022-07-29T14:51:17;0.57;;;0.30;;
45356;SDS011;31092;51.924;21.448;2022-07-29T14:53:43;0.63;;;0.40;;
45356;SDS011;31092;51.924;21.448;2022-07-29T14:56:08;0.32;;;0.32;;
45356;SDS011;31092;51.924;21.448;2022-07-29T14:58:34;0.38;;;0.30;;
45356;SDS011;31092;51.924;21.448;2022-07-29T15:01:00;1.00;;;0.60;;
45356;SDS011;31092;51.924;21.448;2022-07-29T15:03:26;0.40;;;0.40;;
45356;SDS011;31092;51.924;21.448;2022-07-29T15:05:52;0.30;;;0.30;;
45356;SDS011;31092;51.924;21.448;2022-07-29T15:08:18;0.30;;;0.30;;
45356;SDS011;31092;51.924;21.448;2022-07-29T15:10:44;0.50;;;0.50;;
45356;SDS011;31092;51.924;21.448;2022-07-29T15:13:09;0.77;;;0.50;;
45356;SDS011;31092;51.924;21.448;2022-07-29T15:15:35;0.82;;;0.50;;
45356;SDS011;31092;51.924;21.448;2022-07-29T15:18:01;1.20;;;0.55;;
45356;SDS011;31092;51.924;21.448;2022-07-29T15:20:26;0.32;;;0.30;;
45356;SDS011;31092;51.924;21.448;2022-07-29T15:22:52;0.82;;;0.45;;
45356;SDS011;31092;51.924;21.448;2022-07-29T15:25:20;0.32;;;0.32;;
45356;SDS011;31092;51.924;21.448;2022-07-29T15:27:46;0.40;;;0.32;;
45356;SDS011;31092;51.924;21.448;2022-07-29T15:30:12;0.85;;;0.40;;